createdAt,value
2023-01-19T00:02:16.681Z,98732.25
2023-01-19T00:07:37.301Z,98729.03
2023-01-19T00:12:58.526Z,98722.25
2023-01-19T00:18:20.954Z,98713.50
2023-01-19T00:23:42.577Z,98721.91
2023-01-19T00:29:04.665Z,98706.38
2023-01-19T00:34:25.343Z,98722.06
2023-01-19T00:39:45.822Z,98728.66
2023-01-19T00:45:08.869Z,98725.41
2023-01-19T00:50:31.477Z,98734.09
2023-01-19T00:55:52.359Z,98724.22
2023-01-19T01:01:13.352Z,98730.38
2023-01-19T01:06:34.003Z,98718.53
2023-01-19T01:11:54.592Z,98727.63
2023-01-19T01:17:15.548Z,98737.56
2023-01-19T01:22:35.956Z,98732.38
2023-01-19T01:27:56.878Z,98739.03
2023-01-19T01:33:40.847Z,98744.56
2023-01-19T01:38:58.134Z,98754.84
2023-01-19T01:44:49.510Z,98762.47
2023-01-19T01:50:22.487Z,98774.38
2023-01-19T01:55:49.257Z,98774.31
2023-01-19T02:01:29.217Z,98779.97
2023-01-19T02:07:08.923Z,98788.13
2023-01-19T02:12:48.508Z,98792.97
2023-01-19T02:18:09.139Z,98787.09
2023-01-19T02:23:45.188Z,98793.19
2023-01-19T02:29:09.726Z,98802.59
2023-01-19T02:34:30.554Z,98797.25
2023-01-19T02:39:54.683Z,98807.47
2023-01-19T02:45:19.871Z,98813.38
2023-01-19T02:50:46.131Z,98805.66
2023-01-19T02:56:23.284Z,98823.03
2023-01-19T03:01:49.882Z,98817.19
2023-01-19T03:07:15.343Z,98824.13
2023-01-19T03:12:41.083Z,98822.44
2023-01-19T03:18:03.705Z,98839.25
2023-01-19T03:23:29.036Z,98869.31
2023-01-19T03:28:51.500Z,98863.88
2023-01-19T03:34:14.981Z,98892.34
2023-01-19T03:39:35.892Z,98910.41
2023-01-19T03:45:00.067Z,98908.38
2023-01-19T03:50:27.138Z,98939.91
2023-01-19T03:55:50.553Z,98936.81
2023-01-19T04:01:11.126Z,98948.06
2023-01-19T04:06:32.151Z,98960.91
2023-01-19T04:11:52.962Z,98998.97
2023-01-19T04:17:14.065Z,98983.84
2023-01-19T04:22:35.448Z,98995.81
2023-01-19T04:27:58.410Z,99011.88
2023-01-19T04:33:19.755Z,99033.84
2023-01-19T04:38:40.479Z,99046.59
2023-01-19T04:44:00.954Z,99028.09
2023-01-19T04:49:21.631Z,99061.06
2023-01-19T04:54:42.233Z,99063.53
2023-01-19T05:00:06.638Z,99095.59
2023-01-19T05:05:27.384Z,99104.03
2023-01-19T05:10:48.117Z,99109.94
2023-01-19T05:16:08.682Z,99129.41
2023-01-19T05:21:28.994Z,99142.91
2023-01-19T05:26:49.407Z,99173.19
2023-01-19T05:32:09.795Z,99187.56
2023-01-19T05:37:32.662Z,99204.50
2023-01-19T05:42:53.574Z,99207.03
2023-01-19T05:48:14.103Z,99234.03
2023-01-19T05:53:34.728Z,99234.81
2023-01-19T05:58:55.495Z,99233.00
2023-01-19T06:04:16.299Z,99248.94
2023-01-19T06:09:36.897Z,99272.50
2023-01-19T06:14:57.290Z,99278.34
2023-01-19T06:20:18.320Z,99286.66
2023-01-19T06:25:39.275Z,99298.47
2023-01-19T06:31:00.007Z,99306.91
2023-01-19T06:36:20.893Z,99327.13
2023-01-19T06:41:42.068Z,99329.56
2023-01-19T06:47:15.825Z,99343.88
2023-01-19T06:52:42.147Z,99347.16
2023-01-19T06:58:02.935Z,99361.44
2023-01-19T07:03:23.617Z,99371.59
2023-01-19T07:08:44.664Z,99388.41
2023-01-19T07:14:05.412Z,99395.97
2023-01-19T07:19:26.115Z,99412.09
2023-01-19T07:24:46.720Z,99411.91
2023-01-19T07:30:08.858Z,99429.63
2023-01-19T07:35:29.686Z,99443.91
2023-01-19T07:40:50.450Z,99455.69
2023-01-19T07:46:11.023Z,99470.00
2023-01-19T07:51:31.856Z,99485.19
2023-01-19T07:56:55.520Z,99497.03
2023-01-19T08:02:17.254Z,99498.72
2023-01-19T08:07:38.514Z,99525.03
2023-01-19T08:12:59.687Z,99520.81
2023-01-19T08:18:21.473Z,99531.78
2023-01-19T08:23:42.392Z,99556.31
2023-01-19T08:29:05.411Z,99542.72
2023-01-19T08:34:26.125Z,99559.50
2023-01-19T08:39:46.972Z,99557.72
2023-01-19T08:45:09.289Z,99566.09
2023-01-19T08:50:31.822Z,99577.81
2023-01-19T08:56:01.267Z,99571.78
2023-01-19T09:01:22.284Z,99586.03
2023-01-19T09:06:43.240Z,99589.31
2023-01-19T09:12:03.928Z,99602.97
2023-01-19T09:17:24.753Z,99604.72
2023-01-19T09:22:47.603Z,99626.78
2023-01-19T09:28:09.727Z,99625.13
2023-01-19T09:33:30.275Z,99628.50
2023-01-19T09:38:51.674Z,99630.09
2023-01-19T09:44:24.676Z,99637.69
2023-01-19T09:49:52.306Z,99652.78
2023-01-19T09:55:41.128Z,99652.38
2023-01-19T10:01:18.149Z,99656.09
2023-01-19T10:06:39.123Z,99658.00
2023-01-19T10:12:08.360Z,99677.25
2023-01-19T10:18:06.065Z,99663.72
2023-01-19T10:23:39.719Z,99673.84
2023-01-19T10:29:09.954Z,99677.97
2023-01-19T10:34:31.626Z,99707.06
2023-01-19T10:39:54.870Z,99700.22
2023-01-19T10:45:21.266Z,99699.91
2023-01-19T10:50:42.178Z,99702.97
2023-01-19T10:56:16.509Z,99689.66
2023-01-19T11:01:37.965Z,99700.28
2023-01-19T11:07:17.878Z,99708.53
2023-01-19T11:13:01.354Z,99726.53
2023-01-19T11:18:43.115Z,99724.50
2023-01-19T11:24:05.460Z,99732.69
2023-01-19T11:29:27.319Z,99748.06
2023-01-19T11:34:48.335Z,99735.91
2023-01-19T11:40:09.736Z,99738.31
2023-01-19T11:45:33.037Z,99746.19
2023-01-19T11:50:54.477Z,99765.63
2023-01-19T11:56:15.860Z,99768.50
2023-01-19T12:01:44.847Z,99767.09
2023-01-19T12:07:10.544Z,99774.59
2023-01-19T12:12:35.360Z,99773.56
2023-01-19T12:18:00.270Z,99777.47
2023-01-19T12:23:45.773Z,99787.38
2023-01-19T12:29:15.557Z,99776.66
2023-01-19T12:34:51.752Z,99783.13
2023-01-19T12:40:27.899Z,99795.94
2023-01-19T12:45:48.849Z,99800.38
2023-01-19T12:51:10.096Z,99793.38
2023-01-19T12:56:34.975Z,99804.28
2023-01-19T13:02:24.788Z,99787.63
2023-01-19T13:08:06.718Z,99799.88
2023-01-19T13:13:38.370Z,99807.72
2023-01-19T13:19:02.049Z,99797.38
2023-01-19T13:24:23.022Z,99795.13
2023-01-19T13:29:44.135Z,99807.63
2023-01-19T13:35:05.391Z,99829.97
2023-01-19T13:40:36.842Z,99838.44
2023-01-19T13:45:58.344Z,99847.94
2023-01-19T13:51:19.395Z,99869.28
2023-01-19T13:56:42.061Z,99864.91
2023-01-19T14:02:12.582Z,99862.25
2023-01-19T14:07:33.156Z,99875.13
2023-01-19T14:13:37.424Z,99880.19
2023-01-19T14:19:04.115Z,99869.16
2023-01-19T14:24:25.877Z,99878.47
2023-01-19T14:29:50.432Z,99880.31
2023-01-19T14:35:11.303Z,99900.00
2023-01-19T14:40:32.904Z,99900.94
2023-01-19T14:45:54.362Z,99906.84
2023-01-19T14:51:24.338Z,99912.91
2023-01-19T14:56:45.088Z,99923.97
2023-01-19T15:02:06.487Z,99915.56
2023-01-19T15:07:28.476Z,99916.53
2023-01-19T15:12:51.355Z,99936.06
2023-01-19T15:18:18.568Z,99931.00
2023-01-19T15:23:39.194Z,99954.75
2023-01-19T15:28:59.740Z,99960.94
2023-01-19T15:34:20.245Z,99962.78
2023-01-19T15:39:40.842Z,99972.09
2023-01-19T15:45:01.644Z,99978.78
2023-01-19T15:50:23.535Z,99972.97
2023-01-19T15:55:48.480Z,99988.19
2023-01-19T16:01:14.036Z,99985.72
2023-01-19T16:06:35.032Z,100005.19
2023-01-19T16:11:57.019Z,99998.47
2023-01-19T16:17:17.635Z,100003.53
2023-01-19T16:22:38.527Z,100000.16
2023-01-19T16:27:59.004Z,100014.50
2023-01-19T16:33:19.656Z,100022.94
2023-01-19T16:38:40.297Z,100024.63
2023-01-19T16:44:01.197Z,100028.84
2023-01-19T16:49:24.286Z,100043.19
2023-01-19T16:54:45.035Z,100055.84
2023-01-19T17:00:07.933Z,100062.56
2023-01-19T17:05:28.284Z,100085.28
2023-01-19T17:10:49.509Z,100087.75
2023-01-19T17:16:10.384Z,100100.41
2023-01-19T17:21:31.916Z,100105.47
2023-01-19T17:26:52.614Z,100102.94
2023-01-19T17:32:13.372Z,100115.66
2023-01-19T17:37:33.836Z,100111.47
2023-01-19T17:42:54.203Z,100115.66
2023-01-19T17:48:14.642Z,100115.63
2023-01-19T17:53:39.885Z,100108.00
2023-01-19T17:59:00.591Z,100118.97
2023-01-19T18:04:21.269Z,100116.47
2023-01-19T18:09:42.207Z,100121.53
2023-01-19T18:15:05.191Z,100124.88
2023-01-19T18:20:26.246Z,100132.44
2023-01-19T18:25:46.758Z,100130.78
2023-01-19T18:31:09.979Z,100134.19
2023-01-19T18:36:34.316Z,100129.94
2023-01-19T18:41:54.898Z,100131.53
2023-01-19T18:47:15.698Z,100144.16
2023-01-19T18:52:36.280Z,100146.72
2023-01-19T18:57:57.060Z,100140.84
2023-01-19T19:03:17.790Z,100138.34
2023-01-19T19:08:38.440Z,100134.13
2023-01-19T19:14:00.877Z,100132.44
2023-01-19T19:19:21.733Z,100134.09
2023-01-19T19:24:42.437Z,100134.94
2023-01-19T19:30:03.660Z,100132.44
2023-01-19T19:35:26.043Z,100135.88
2023-01-19T19:40:46.749Z,100141.00
2023-01-19T19:46:10.106Z,100141.03
2023-01-19T19:51:31.013Z,100152.88
2023-01-19T19:56:53.700Z,100162.19
2023-01-19T20:02:14.156Z,100175.72
2023-01-19T20:07:34.879Z,100177.38
2023-01-19T20:12:55.625Z,100180.72
2023-01-19T20:18:16.505Z,100176.34
2023-01-19T20:23:37.414Z,100179.69
2023-01-19T20:28:59.964Z,100183.91
2023-01-19T20:34:22.513Z,100188.19
2023-01-19T20:39:43.158Z,100190.75
2023-01-19T20:45:04.069Z,100184.91
2023-01-19T20:50:24.811Z,100199.28
2023-01-19T20:55:45.233Z,100207.72
2023-01-19T21:01:17.916Z,100211.09
2023-01-19T21:06:39.400Z,100209.41
2023-01-19T21:12:00.096Z,100242.28
2023-01-19T21:17:20.740Z,100248.22
2023-01-19T21:22:41.451Z,100248.19
2023-01-19T21:28:02.173Z,100257.41
2023-01-19T21:33:23.634Z,100253.22
2023-01-19T21:38:44.614Z,100266.72
2023-01-19T21:44:05.788Z,100272.66
2023-01-19T21:49:26.556Z,100278.63
2023-01-19T21:54:47.059Z,100290.47
2023-01-19T22:00:10.249Z,100309.94
2023-01-19T22:05:36.570Z,100316.69
2023-01-19T22:11:05.591Z,100309.97
2023-01-19T22:16:27.118Z,100328.56
2023-01-19T22:21:48.203Z,100320.13
2023-01-19T22:27:08.962Z,100342.06
2023-01-19T22:32:31.123Z,100352.97
2023-01-19T22:37:51.691Z,100364.78
2023-01-19T22:43:12.404Z,100373.25
2023-01-19T22:48:32.920Z,100386.75
2023-01-19T22:53:53.495Z,100393.53
2023-01-19T22:59:14.625Z,100396.97
2023-01-19T23:04:35.346Z,100402.91
2023-01-19T23:09:55.944Z,100410.53
2023-01-19T23:15:16.620Z,100414.78
2023-01-19T23:20:37.605Z,100430.03
2023-01-19T23:26:06.161Z,100425.81
2023-01-19T23:31:32.289Z,100435.03
2023-01-19T23:36:52.938Z,100447.66
2023-01-19T23:42:13.346Z,100459.44
2023-01-19T23:47:35.783Z,100453.56
2023-01-19T23:52:56.355Z,100469.59
2023-01-19T23:58:17.067Z,100473.03
